createdAt,value
2019-06-20T00:01:43.296Z,4.13
2019-06-20T00:04:14.155Z,4.30
2019-06-20T00:06:44.602Z,4.90
2019-06-20T00:09:15.103Z,4.67
2019-06-20T00:11:45.580Z,6.03
2019-06-20T00:14:16.026Z,6.97
2019-06-20T00:16:46.652Z,7.40
2019-06-20T00:19:17.545Z,7.50
2019-06-20T00:21:48.150Z,6.40
2019-06-20T00:24:20.882Z,6.07
2019-06-20T00:26:51.559Z,5.57
2019-06-20T00:29:21.968Z,5.87
2019-06-20T00:31:53.831Z,5.17
2019-06-20T00:34:24.410Z,5.80
2019-06-20T00:36:55.158Z,5.70
2019-06-20T00:39:25.799Z,4.93
2019-06-20T00:41:56.433Z,5.87
2019-06-20T00:44:26.990Z,5.50
2019-06-20T00:46:57.518Z,5.60
2019-06-20T00:49:27.969Z,4.80
2019-06-20T00:51:58.425Z,5.27
2019-06-20T00:54:29.138Z,5.07
2019-06-20T00:56:59.662Z,4.87
2019-06-20T00:59:30.082Z,5.20
2019-06-20T01:02:00.799Z,5.30
2019-06-20T01:04:33.968Z,5.47
2019-06-20T01:07:04.630Z,4.97
2019-06-20T01:09:35.292Z,5.47
2019-06-20T01:12:05.953Z,4.67
2019-06-20T01:14:36.719Z,4.87
2019-06-20T01:17:07.538Z,4.90
2019-06-20T01:19:38.130Z,4.87
2019-06-20T01:22:08.712Z,5.07
2019-06-20T01:24:39.418Z,5.00
2019-06-20T01:27:10.084Z,5.00
2019-06-20T01:29:40.711Z,4.80
2019-06-20T01:32:11.260Z,4.97
2019-06-20T01:34:41.730Z,4.90
2019-06-20T01:37:12.222Z,4.63
2019-06-20T01:39:42.637Z,4.90
2019-06-20T01:42:13.074Z,4.83
2019-06-20T01:44:43.873Z,4.40
2019-06-20T01:47:14.318Z,4.40
2019-06-20T01:49:45.321Z,4.60
2019-06-20T01:52:15.671Z,4.57
2019-06-20T01:54:46.137Z,5.00
2019-06-20T01:57:16.577Z,4.20
2019-06-20T01:59:47.295Z,4.77
2019-06-20T02:02:17.754Z,4.60
2019-06-20T02:04:48.097Z,5.00
2019-06-20T02:07:18.521Z,4.70
2019-06-20T02:09:49.011Z,5.00
2019-06-20T02:12:19.392Z,5.23
2019-06-20T02:14:49.819Z,4.83
2019-06-20T02:17:20.299Z,5.07
2019-06-20T02:19:50.835Z,5.00
2019-06-20T02:22:21.281Z,5.20
2019-06-20T02:24:51.690Z,4.80
2019-06-20T02:27:23.117Z,4.73
2019-06-20T02:29:53.557Z,4.97
2019-06-20T02:32:23.989Z,4.63
2019-06-20T02:34:54.428Z,4.90
2019-06-20T02:37:24.921Z,4.93
2019-06-20T02:39:55.389Z,4.87
2019-06-20T02:42:25.747Z,5.20
2019-06-20T02:44:56.238Z,4.17
2019-06-20T02:47:26.716Z,8.20
2019-06-20T02:49:57.119Z,4.70
2019-06-20T02:52:27.621Z,5.13
2019-06-20T02:54:57.932Z,4.57
2019-06-20T02:57:28.411Z,6.23
2019-06-20T02:59:58.960Z,4.80
2019-06-20T03:02:29.375Z,4.30
2019-06-20T03:04:59.781Z,4.57
2019-06-20T03:07:30.211Z,4.10
2019-06-20T03:10:00.669Z,4.40
2019-06-20T03:12:31.137Z,4.53
2019-06-20T03:15:01.880Z,4.40
2019-06-20T03:17:32.204Z,4.10
2019-06-20T03:20:02.722Z,4.13
2019-06-20T03:22:33.068Z,4.40
2019-06-20T03:25:03.877Z,4.30
2019-06-20T03:27:34.389Z,5.10
2019-06-20T03:30:05.300Z,4.70
2019-06-20T03:32:35.761Z,4.10
2019-06-20T03:35:06.243Z,4.00
2019-06-20T03:37:36.719Z,4.33
2019-06-20T03:40:07.397Z,3.63
2019-06-20T03:42:37.872Z,4.20
2019-06-20T03:45:08.552Z,4.23
2019-06-20T03:47:39.014Z,4.27
2019-06-20T03:50:10.523Z,3.80
2019-06-20T03:52:40.992Z,4.17
2019-06-20T03:55:13.207Z,4.07
2019-06-20T03:57:43.698Z,3.80
2019-06-20T04:00:14.361Z,3.87
2019-06-20T04:02:44.730Z,3.80
2019-06-20T04:05:16.251Z,4.30
2019-06-20T04:07:46.756Z,3.90
2019-06-20T04:10:17.344Z,4.10
2019-06-20T04:12:47.758Z,4.30
2019-06-20T04:15:19.643Z,4.20
2019-06-20T04:17:50.326Z,4.37
2019-06-20T04:20:20.702Z,4.30
2019-06-20T04:22:51.100Z,4.43
2019-06-20T04:25:21.649Z,4.10
2019-06-20T04:27:52.078Z,4.10
2019-06-20T04:30:22.616Z,4.13
2019-06-20T04:32:53.033Z,4.37
2019-06-20T04:35:23.496Z,4.57
2019-06-20T04:37:53.909Z,4.23
2019-06-20T04:40:24.384Z,4.40
2019-06-20T04:42:54.906Z,4.40
2019-06-20T04:45:47.057Z,4.13
2019-06-20T04:48:17.542Z,4.20
2019-06-20T04:50:47.877Z,4.03
2019-06-20T04:53:18.311Z,3.80
2019-06-20T04:55:48.672Z,4.20
2019-06-20T04:58:19.151Z,4.57
2019-06-20T05:00:49.508Z,4.33
2019-06-20T05:03:19.955Z,4.30
2019-06-20T05:05:50.427Z,4.13
2019-06-20T05:08:20.963Z,3.93
2019-06-20T05:10:51.367Z,4.33
2019-06-20T05:13:21.783Z,4.60
2019-06-20T05:15:53.398Z,4.60
2019-06-20T05:18:24.137Z,4.53
2019-06-20T05:20:54.668Z,4.03
2019-06-20T05:23:25.204Z,4.90
2019-06-20T05:25:55.687Z,4.33
2019-06-20T05:28:26.156Z,4.13
2019-06-20T05:30:56.719Z,4.70
2019-06-20T05:33:27.188Z,4.60
2019-06-20T05:35:57.637Z,4.20
2019-06-20T05:38:28.141Z,4.70
2019-06-20T05:40:58.634Z,4.70
2019-06-20T05:43:29.100Z,4.50
2019-06-20T05:46:08.954Z,4.90
2019-06-20T05:48:31.778Z,4.50
2019-06-20T05:51:02.271Z,5.00
2019-06-20T05:53:32.645Z,4.70
2019-06-20T05:56:03.031Z,4.33
2019-06-20T05:58:33.515Z,4.80
2019-06-20T06:01:03.993Z,4.53
2019-06-20T06:03:34.500Z,4.60
2019-06-20T06:06:05.030Z,4.90
2019-06-20T06:08:35.363Z,5.33
2019-06-20T06:11:05.905Z,4.97
2019-06-20T06:13:36.401Z,4.97
2019-06-20T06:16:06.910Z,5.00
2019-06-20T06:18:37.272Z,4.07
2019-06-20T06:21:07.881Z,5.47
2019-06-20T06:23:38.281Z,5.00
2019-06-20T06:26:08.728Z,5.07
2019-06-20T06:28:39.146Z,4.40
2019-06-20T06:31:09.565Z,4.53
2019-06-20T06:33:40.040Z,4.70
2019-06-20T06:36:10.465Z,4.47
2019-06-20T06:38:40.937Z,4.90
2019-06-20T06:41:11.391Z,4.13
2019-06-20T06:43:42.313Z,4.50
2019-06-20T06:46:12.795Z,4.80
2019-06-20T06:48:43.272Z,4.33
2019-06-20T06:51:13.792Z,4.57
2019-06-20T06:53:44.256Z,3.97
2019-06-20T06:56:14.660Z,4.40
2019-06-20T06:58:45.067Z,4.00
2019-06-20T07:01:15.520Z,4.43
2019-06-20T07:03:45.937Z,3.93
2019-06-20T07:06:16.353Z,3.93
2019-06-20T07:08:46.827Z,3.70
2019-06-20T07:11:17.216Z,3.93
2019-06-20T07:13:47.590Z,3.80
2019-06-20T07:16:18.090Z,3.87
2019-06-20T07:18:48.576Z,3.60
2019-06-20T07:21:19.125Z,3.77
2019-06-20T07:23:49.423Z,3.90
2019-06-20T07:26:19.761Z,3.30
2019-06-20T07:28:51.585Z,3.93
2019-06-20T07:31:22.342Z,3.90
2019-06-20T07:33:52.771Z,3.53
2019-06-20T07:36:23.267Z,3.40
2019-06-20T07:38:53.660Z,3.30
2019-06-20T07:41:24.268Z,3.60
2019-06-20T07:43:54.836Z,3.90
2019-06-20T07:46:25.294Z,3.40
2019-06-20T07:48:55.780Z,3.50
2019-06-20T07:51:26.257Z,3.80
2019-06-20T07:53:56.584Z,3.70
2019-06-20T07:56:27.167Z,4.07
2019-06-20T07:58:57.651Z,4.30
2019-06-20T08:01:28.091Z,4.30
2019-06-20T08:03:59.058Z,4.13
2019-06-20T08:06:29.388Z,6.60
2019-06-20T08:08:59.751Z,6.90
2019-06-20T08:11:30.355Z,7.00
2019-06-20T08:14:00.758Z,8.03
2019-06-20T08:16:31.231Z,10.10
2019-06-20T08:19:01.645Z,9.07
2019-06-20T08:21:32.080Z,9.13
2019-06-20T08:24:02.555Z,9.80
2019-06-20T08:26:32.968Z,8.87
2019-06-20T08:29:14.942Z,8.90
2019-06-20T08:31:35.644Z,9.50
2019-06-20T08:34:06.589Z,9.63
2019-06-20T08:36:37.111Z,9.80
2019-06-20T08:39:10.452Z,8.90
2019-06-20T08:41:41.015Z,8.83
2019-06-20T08:44:11.385Z,9.73
2019-06-20T08:46:41.885Z,9.43
2019-06-20T08:49:12.239Z,10.20
2019-06-20T08:51:42.749Z,9.30
2019-06-20T08:54:13.071Z,8.93
2019-06-20T08:56:43.553Z,9.47
2019-06-20T08:59:23.918Z,8.90
2019-06-20T09:01:46.220Z,8.87
2019-06-20T09:04:16.623Z,9.17
2019-06-20T09:06:50.044Z,9.20
2019-06-20T09:09:19.418Z,9.40
2019-06-20T09:11:49.836Z,10.20
2019-06-20T09:14:20.300Z,9.53
2019-06-20T09:16:50.686Z,10.47
2019-06-20T09:19:21.158Z,9.70
2019-06-20T09:21:52.644Z,9.83
2019-06-20T09:24:25.531Z,10.57
2019-06-20T09:26:57.174Z,18.50
2019-06-20T09:29:40.855Z,10.73
2019-06-20T09:32:00.602Z,12.40
2019-06-20T09:34:30.936Z,15.23
2019-06-20T09:37:01.468Z,10.90
2019-06-20T09:39:31.961Z,9.67
2019-06-20T09:42:03.439Z,8.10
2019-06-20T09:44:33.843Z,8.63
2019-06-20T09:47:04.536Z,8.33
2019-06-20T09:49:35.020Z,8.30
2019-06-20T09:52:05.545Z,7.77
2019-06-20T09:54:36.002Z,7.57
2019-06-20T09:57:06.726Z,7.43
2019-06-20T09:59:37.152Z,7.50
2019-06-20T10:02:07.727Z,7.53
2019-06-20T10:04:38.204Z,7.10
2019-06-20T10:07:08.735Z,7.50
2019-06-20T10:09:39.161Z,7.03
2019-06-20T10:12:09.574Z,6.80
2019-06-20T10:14:40.047Z,6.17
2019-06-20T10:17:10.520Z,6.17
2019-06-20T10:19:41.042Z,5.43
2019-06-20T10:22:11.505Z,5.50
2019-06-20T10:24:41.959Z,5.07
2019-06-20T10:27:12.470Z,5.07
2019-06-20T10:29:42.950Z,4.47
2019-06-20T10:32:13.389Z,4.43
2019-06-20T10:34:45.122Z,5.13
2019-06-20T10:37:17.052Z,3.80
2019-06-20T10:39:47.808Z,3.50
2019-06-20T10:42:18.125Z,3.40
2019-06-20T10:44:49.702Z,3.20
2019-06-20T10:47:31.863Z,3.87
2019-06-20T10:49:52.323Z,4.23
2019-06-20T10:52:22.771Z,3.93
2019-06-20T10:54:53.273Z,3.80
2019-06-20T10:57:23.695Z,3.50
2019-06-20T10:59:54.150Z,3.77
2019-06-20T11:02:24.605Z,3.40
2019-06-20T11:04:55.207Z,3.83
2019-06-20T11:07:25.661Z,3.30
2019-06-20T11:09:56.374Z,3.20
2019-06-20T11:12:26.766Z,3.23
2019-06-20T11:14:57.160Z,3.47
2019-06-20T11:17:27.513Z,3.50
2019-06-20T11:19:57.994Z,3.50
2019-06-20T11:22:28.468Z,3.30
2019-06-20T11:24:58.945Z,3.50
2019-06-20T11:27:29.417Z,3.43
2019-06-20T11:29:59.858Z,3.80
2019-06-20T11:32:30.383Z,3.97
2019-06-20T11:35:00.856Z,3.63
2019-06-20T11:37:31.516Z,4.17
2019-06-20T11:40:01.962Z,3.67
2019-06-20T11:42:32.572Z,4.00
2019-06-20T11:45:03.083Z,4.10
2019-06-20T11:47:34.979Z,4.20
2019-06-20T11:50:06.376Z,3.57
2019-06-20T11:52:41.034Z,4.70
2019-06-20T11:55:09.629Z,4.43
2019-06-20T11:57:40.158Z,4.50
2019-06-20T12:00:11.483Z,4.10
2019-06-20T12:02:42.748Z,3.90
2019-06-20T12:05:14.276Z,4.20
2019-06-20T12:07:45.587Z,4.57
2019-06-20T12:10:17.260Z,4.40
2019-06-20T12:12:49.193Z,3.90
2019-06-20T12:15:21.182Z,3.70
2019-06-20T12:17:51.634Z,4.67
2019-06-20T12:20:22.879Z,3.83
2019-06-20T12:22:53.426Z,4.00
2019-06-20T12:25:24.246Z,3.80
2019-06-20T12:27:54.684Z,3.53
2019-06-20T12:30:26.575Z,3.20
2019-06-20T12:32:57.035Z,3.67
2019-06-20T12:35:28.017Z,3.10
2019-06-20T12:37:58.505Z,3.80
2019-06-20T12:40:29.165Z,3.00
2019-06-20T12:42:59.752Z,3.23
2019-06-20T12:45:30.240Z,3.33
2019-06-20T12:48:01.527Z,3.17
2019-06-20T12:50:31.980Z,2.90
2019-06-20T12:53:02.546Z,3.10
2019-06-20T12:55:33.028Z,2.80
2019-06-20T12:58:03.558Z,3.00
2019-06-20T13:00:37.640Z,3.00
2019-06-20T13:03:08.851Z,2.97
2019-06-20T13:05:40.138Z,3.00
2019-06-20T13:08:13.647Z,3.20
2019-06-20T13:10:44.222Z,3.10
2019-06-20T13:13:15.632Z,3.00
2019-06-20T13:15:46.940Z,3.50
2019-06-20T13:18:17.535Z,2.70
2019-06-20T13:20:48.548Z,2.83
2019-06-20T13:23:18.986Z,2.60
2019-06-20T13:25:49.431Z,2.57
2019-06-20T13:28:19.871Z,2.10
2019-06-20T13:30:52.195Z,2.30
2019-06-20T13:33:22.871Z,2.40
2019-06-20T13:35:53.311Z,4.60
2019-06-20T13:38:23.959Z,2.40
2019-06-20T13:40:54.360Z,2.57
2019-06-20T13:43:24.883Z,2.70
2019-06-20T13:45:55.355Z,3.10
2019-06-20T13:48:25.975Z,2.40
2019-06-20T13:50:56.487Z,3.00
2019-06-20T13:53:26.985Z,2.97
2019-06-20T13:55:57.489Z,2.97
2019-06-20T13:58:27.952Z,3.00
2019-06-20T14:00:58.363Z,3.00
2019-06-20T14:03:28.767Z,3.00
2019-06-20T14:05:59.241Z,2.77
2019-06-20T14:08:29.738Z,3.50
2019-06-20T14:11:00.087Z,2.90
2019-06-20T14:13:30.494Z,4.30
2019-06-20T14:16:00.992Z,3.30
2019-06-20T14:18:31.447Z,2.67
2019-06-20T14:21:02.119Z,2.60
2019-06-20T14:23:32.816Z,2.80
2019-06-20T14:26:03.249Z,2.70
2019-06-20T14:28:33.682Z,3.10
2019-06-20T14:31:04.138Z,2.60
2019-06-20T14:33:34.643Z,3.87
2019-06-20T14:36:05.142Z,2.77
2019-06-20T14:38:35.611Z,2.80
2019-06-20T14:41:06.167Z,2.70
2019-06-20T14:43:36.667Z,2.80
2019-06-20T14:46:07.137Z,3.27
2019-06-20T14:48:37.547Z,3.07
2019-06-20T14:51:07.925Z,3.20
2019-06-20T14:53:38.367Z,3.63
2019-06-20T14:56:08.827Z,3.20
2019-06-20T14:58:39.409Z,3.57
2019-06-20T15:01:09.830Z,3.50
2019-06-20T15:03:40.191Z,2.70
2019-06-20T15:06:10.621Z,3.63
2019-06-20T15:08:40.967Z,4.80
2019-06-20T15:11:12.489Z,6.13
2019-06-20T15:13:43.052Z,5.30
2019-06-20T15:16:13.549Z,9.23
2019-06-20T15:18:46.501Z,7.47
2019-06-20T15:21:16.133Z,8.83
2019-06-20T15:23:48.850Z,9.63
2019-06-20T15:26:18.849Z,11.00
2019-06-20T15:28:49.764Z,12.60
2019-06-20T15:31:21.478Z,13.17
2019-06-20T15:33:53.282Z,12.77
2019-06-20T15:36:23.910Z,14.50
2019-06-20T15:38:55.069Z,30.97
2019-06-20T15:41:25.719Z,59.80
2019-06-20T15:43:56.253Z,41.33
2019-06-20T15:46:30.424Z,25.20
2019-06-20T15:49:00.155Z,24.77
2019-06-20T15:51:31.171Z,15.63
2019-06-20T15:54:01.545Z,23.63
2019-06-20T15:56:31.942Z,16.67
2019-06-20T15:59:02.508Z,20.43
2019-06-20T16:01:32.882Z,19.27
2019-06-20T16:04:03.368Z,16.43
2019-06-20T16:06:33.874Z,15.50
2019-06-20T16:09:08.376Z,15.47
2019-06-20T16:11:37.312Z,22.13
2019-06-20T16:14:07.794Z,21.03
2019-06-20T16:16:38.269Z,23.30
2019-06-20T16:19:08.735Z,27.23
2019-06-20T16:21:39.244Z,23.00
2019-06-20T16:24:12.598Z,25.50
2019-06-20T16:26:41.932Z,26.57
2019-06-20T16:29:12.324Z,28.83
2019-06-20T16:31:42.751Z,25.07
2019-06-20T16:34:13.240Z,24.00
2019-06-20T16:36:43.707Z,18.90
2019-06-20T16:39:14.383Z,16.60
2019-06-20T16:41:44.950Z,17.67
2019-06-20T16:44:15.456Z,17.60
2019-06-20T16:46:46.148Z,26.07
2019-06-20T16:49:16.683Z,17.63
2019-06-20T16:51:47.163Z,19.87
2019-06-20T16:54:17.745Z,8.67
2019-06-20T16:56:48.269Z,8.30
2019-06-20T16:59:18.760Z,6.90
2019-06-20T17:01:49.249Z,5.17
2019-06-20T17:04:19.867Z,6.47
2019-06-20T17:06:50.315Z,14.93
2019-06-20T17:09:20.805Z,16.83
2019-06-20T17:11:51.223Z,38.67
2019-06-20T17:14:21.720Z,30.33
2019-06-20T17:16:52.144Z,32.03
2019-06-20T17:19:22.529Z,10.83
2019-06-20T17:21:53.186Z,7.27
2019-06-20T17:24:23.532Z,7.43
2019-06-20T17:26:53.961Z,6.73
2019-06-20T17:29:24.486Z,6.87
2019-06-20T17:31:57.377Z,10.60
2019-06-20T17:34:27.132Z,9.00
2019-06-20T17:36:57.615Z,9.57
2019-06-20T17:39:28.100Z,8.37
2019-06-20T17:41:58.855Z,8.33
2019-06-20T17:44:29.528Z,9.03
2019-06-20T17:47:00.042Z,10.93
2019-06-20T17:49:30.513Z,11.27
2019-06-20T17:52:01.055Z,11.20
2019-06-20T17:54:31.628Z,11.20
2019-06-20T17:57:02.195Z,9.87
2019-06-20T17:59:32.607Z,9.57
2019-06-20T18:02:03.110Z,10.30
2019-06-20T18:04:33.497Z,10.20
2019-06-20T18:07:04.078Z,10.50
2019-06-20T18:09:34.653Z,10.63
2019-06-20T18:12:05.133Z,9.20
2019-06-20T18:14:35.535Z,10.17
2019-06-20T18:17:06.008Z,11.70
2019-06-20T18:19:36.451Z,11.57
2019-06-20T18:22:07.123Z,10.10
2019-06-20T18:24:37.617Z,12.93
2019-06-20T18:27:08.172Z,11.53
2019-06-20T18:29:38.652Z,10.53
2019-06-20T18:32:09.097Z,9.00
2019-06-20T18:34:39.576Z,9.60
2019-06-20T18:37:10.130Z,10.00
2019-06-20T18:39:40.695Z,9.53
2019-06-20T18:42:11.142Z,9.10
2019-06-20T18:44:41.631Z,8.73
2019-06-20T18:47:12.071Z,10.43
2019-06-20T18:49:42.536Z,9.07
2019-06-20T18:52:12.960Z,8.47
2019-06-20T18:54:43.357Z,9.77
2019-06-20T18:57:13.827Z,9.30
2019-06-20T18:59:47.307Z,8.33
2019-06-20T19:02:17.754Z,9.30
2019-06-20T19:04:50.876Z,9.17
2019-06-20T19:07:20.479Z,9.20
2019-06-20T19:09:51.333Z,9.80
2019-06-20T19:12:24.718Z,8.60
2019-06-20T19:14:55.173Z,8.53
2019-06-20T19:17:25.634Z,8.90
2019-06-20T19:19:56.135Z,8.07
2019-06-20T19:22:26.654Z,8.83
2019-06-20T19:25:03.810Z,8.30
2019-06-20T19:27:45.459Z,9.03
2019-06-20T19:30:12.726Z,9.13
2019-06-20T19:32:48.308Z,9.50
2019-06-20T19:35:18.781Z,9.37
2019-06-20T19:37:49.276Z,9.57
2019-06-20T19:40:20.778Z,9.37
2019-06-20T19:42:51.239Z,9.73
2019-06-20T19:45:23.096Z,8.83
2019-06-20T19:47:53.576Z,9.70
2019-06-20T19:50:24.083Z,9.07
2019-06-20T19:52:54.566Z,10.73
2019-06-20T19:55:25.321Z,9.40
2019-06-20T19:57:55.722Z,9.70
2019-06-20T20:00:26.231Z,9.67
2019-06-20T20:02:56.804Z,10.53
2019-06-20T20:05:27.989Z,9.53
2019-06-20T20:07:58.640Z,8.97
2019-06-20T20:10:54.453Z,9.60
2019-06-20T20:13:24.982Z,8.63
2019-06-20T20:15:55.443Z,8.77
2019-06-20T20:18:25.865Z,8.37
2019-06-20T20:20:56.262Z,9.10
2019-06-20T20:23:26.694Z,9.20
2019-06-20T20:25:57.272Z,9.63
2019-06-20T20:28:27.763Z,9.17
2019-06-20T20:30:58.178Z,10.30
2019-06-20T20:33:28.650Z,9.83
2019-06-20T20:36:01.882Z,14.80
2019-06-20T20:38:31.582Z,9.33
2019-06-20T20:41:02.076Z,16.30
2019-06-20T20:43:32.536Z,34.20
2019-06-20T20:46:02.902Z,31.63
2019-06-20T20:48:33.945Z,25.83
2019-06-20T20:51:04.438Z,19.50
2019-06-20T20:53:34.963Z,34.83
2019-06-20T20:56:05.458Z,26.93
2019-06-20T20:58:35.791Z,15.33
2019-06-20T21:01:16.497Z,10.57
2019-06-20T21:03:46.955Z,13.60
2019-06-20T21:06:17.348Z,12.53
2019-06-20T21:08:47.743Z,11.77
2019-06-20T21:11:18.208Z,10.83
2019-06-20T21:13:48.673Z,10.90
2019-06-20T21:16:19.122Z,10.13
2019-06-20T21:18:49.538Z,9.80
2019-06-20T21:21:20.083Z,10.83
2019-06-20T21:23:50.532Z,11.00
2019-06-20T21:26:20.971Z,11.50
2019-06-20T21:28:51.459Z,11.40
2019-06-20T21:31:22.748Z,12.90
2019-06-20T21:33:54.449Z,19.23
2019-06-20T21:36:25.350Z,28.93
2019-06-20T21:38:55.780Z,19.43
2019-06-20T21:41:26.352Z,16.97
2019-06-20T21:43:56.942Z,18.07
2019-06-20T21:46:27.403Z,14.63
2019-06-20T21:48:57.842Z,15.10
2019-06-20T21:51:28.325Z,13.50
2019-06-20T21:53:58.815Z,14.13
2019-06-20T21:56:29.257Z,13.87
2019-06-20T21:58:59.771Z,12.73
2019-06-20T22:01:30.283Z,11.63
2019-06-20T22:04:00.757Z,12.17
2019-06-20T22:06:31.246Z,13.83
2019-06-20T22:09:01.681Z,13.40
2019-06-20T22:11:32.170Z,11.53
2019-06-20T22:14:02.640Z,13.40
2019-06-20T22:16:33.138Z,14.13
2019-06-20T22:19:03.749Z,13.30
2019-06-20T22:21:34.389Z,12.20
2019-06-20T22:24:05.014Z,11.60
2019-06-20T22:26:37.055Z,13.80
2019-06-20T22:29:07.585Z,13.53
2019-06-20T22:31:38.047Z,16.00
2019-06-20T22:34:08.503Z,16.20
2019-06-20T22:36:40.474Z,14.90
2019-06-20T22:39:11.448Z,15.07
2019-06-20T22:41:41.954Z,15.90
2019-06-20T22:44:12.319Z,13.50
2019-06-20T22:46:42.660Z,12.43
2019-06-20T22:49:13.075Z,11.63
2019-06-20T22:51:43.537Z,10.57
2019-06-20T22:54:13.987Z,10.97
2019-06-20T22:56:44.430Z,10.10
2019-06-20T22:59:14.980Z,9.07
2019-06-20T23:01:45.484Z,10.90
2019-06-20T23:04:15.932Z,10.63
2019-06-20T23:06:56.008Z,10.60
2019-06-20T23:09:18.581Z,10.20
2019-06-20T23:11:49.967Z,10.97
2019-06-20T23:14:20.484Z,10.73
2019-06-20T23:16:50.940Z,10.43
2019-06-20T23:19:21.431Z,11.03
2019-06-20T23:21:51.851Z,10.47
2019-06-20T23:24:22.327Z,11.57
2019-06-20T23:26:52.687Z,11.63
2019-06-20T23:29:23.105Z,14.17
2019-06-20T23:31:54.616Z,14.77
2019-06-20T23:34:25.757Z,15.60
2019-06-20T23:37:11.421Z,14.53
2019-06-20T23:39:28.596Z,15.10
2019-06-20T23:41:58.908Z,15.43
2019-06-20T23:44:29.405Z,16.57
2019-06-20T23:46:59.847Z,16.50
2019-06-20T23:49:30.376Z,17.43
2019-06-20T23:52:11.751Z,14.90
2019-06-20T23:54:42.209Z,15.00
2019-06-20T23:57:12.709Z,15.23
2019-06-20T23:59:43.514Z,14.53
